createdAt,value
2023-03-26T00:00:59.299Z,49.96
2023-03-26T00:03:59.430Z,49.96
2023-03-26T00:06:58.414Z,49.96
2023-03-26T00:09:58.886Z,49.96
2023-03-26T00:12:58.943Z,49.96
2023-03-26T00:15:58.796Z,49.96
2023-03-26T00:18:59.581Z,49.96
2023-03-26T00:21:57.731Z,49.96
2023-03-26T00:24:59.031Z,49.96
2023-03-26T00:27:58.720Z,49.96
2023-03-26T00:30:58.411Z,49.96
2023-03-26T00:33:59.135Z,49.96
2023-03-26T00:36:58.873Z,49.96
2023-03-26T00:40:00.713Z,49.96
2023-03-26T00:42:59.138Z,49.96
2023-03-26T00:45:58.466Z,49.96
2023-03-26T00:48:58.345Z,49.96
2023-03-26T00:51:58.468Z,49.96
2023-03-26T00:54:59.431Z,49.96
2023-03-26T00:57:59.244Z,49.96
2023-03-26T01:00:58.913Z,49.96
2023-03-26T01:04:15.356Z,49.96
2023-03-26T01:06:58.388Z,49.96
2023-03-26T01:09:58.903Z,49.96
2023-03-26T01:12:58.469Z,49.96
2023-03-26T01:15:59.003Z,49.96
2023-03-26T01:18:59.116Z,49.96
2023-03-26T01:21:59.687Z,49.96
2023-03-26T01:24:59.146Z,49.96
2023-03-26T01:27:59.449Z,49.96
2023-03-26T01:30:59.102Z,49.96
2023-03-26T01:33:57.870Z,49.96
2023-03-26T01:36:59.811Z,49.96
2023-03-26T01:39:57.403Z,49.96
2023-03-26T01:42:58.785Z,49.96
2023-03-26T01:45:58.440Z,49.96
2023-03-26T01:48:58.126Z,49.96
2023-03-26T01:51:58.555Z,49.96
2023-03-26T01:54:58.951Z,49.96
2023-03-26T01:57:58.921Z,49.96
2023-03-26T02:00:58.359Z,49.96
2023-03-26T02:04:00.127Z,49.96
2023-03-26T02:06:59.261Z,49.96
2023-03-26T02:09:58.110Z,49.96
2023-03-26T02:12:58.256Z,49.96
2023-03-26T02:15:59.129Z,49.96
2023-03-26T02:18:58.503Z,49.96
2023-03-26T02:21:58.908Z,49.96
2023-03-26T02:24:58.188Z,49.96
2023-03-26T02:27:58.513Z,49.96
2023-03-26T02:30:59.553Z,49.96
2023-03-26T02:33:57.354Z,49.96
2023-03-26T02:36:58.379Z,49.96
2023-03-26T02:39:58.229Z,49.96
2023-03-26T02:42:58.829Z,49.96
2023-03-26T02:45:58.239Z,49.96
2023-03-26T02:48:58.308Z,49.96
2023-03-26T02:51:59.678Z,49.96
2023-03-26T02:54:58.162Z,49.96
2023-03-26T02:57:59.203Z,49.96
2023-03-26T03:00:59.172Z,49.96
2023-03-26T03:03:57.613Z,49.96
2023-03-26T03:06:58.760Z,49.96
2023-03-26T03:10:00.381Z,49.96
2023-03-26T03:12:58.893Z,49.96
2023-03-26T03:15:59.417Z,49.96
2023-03-26T03:18:59.461Z,49.96
2023-03-26T03:21:58.570Z,49.96
2023-03-26T03:24:58.651Z,49.96
2023-03-26T03:27:57.374Z,49.96
2023-03-26T03:30:58.438Z,49.96
2023-03-26T03:33:59.217Z,49.96
2023-03-26T03:36:58.199Z,49.96
2023-03-26T03:39:57.929Z,49.96
2023-03-26T03:42:59.279Z,49.96
2023-03-26T03:45:59.160Z,49.96
2023-03-26T03:48:58.262Z,49.96
2023-03-26T03:51:59.573Z,49.96
2023-03-26T03:54:58.302Z,49.96
2023-03-26T03:57:58.659Z,49.96
2023-03-26T04:01:00.149Z,49.96
2023-03-26T04:03:59.267Z,49.96
2023-03-26T04:06:59.216Z,49.96
2023-03-26T04:09:59.143Z,49.96
2023-03-26T04:12:59.041Z,49.96
2023-03-26T04:15:59.388Z,49.96
2023-03-26T04:18:58.586Z,49.96
2023-03-26T04:21:58.923Z,49.96
2023-03-26T04:24:57.793Z,49.96
2023-03-26T04:27:58.580Z,49.96
2023-03-26T04:30:59.403Z,49.96
2023-03-26T04:33:58.940Z,49.96
2023-03-26T04:36:58.166Z,49.96
2023-03-26T04:39:58.295Z,49.96
2023-03-26T04:42:59.006Z,49.96
2023-03-26T04:45:58.709Z,49.96
2023-03-26T04:48:57.884Z,49.96
2023-03-26T04:51:59.622Z,49.96
2023-03-26T04:54:59.837Z,49.96
2023-03-26T04:57:58.434Z,49.96
2023-03-26T05:00:59.312Z,49.96
2023-03-26T05:03:59.811Z,49.96
2023-03-26T05:06:58.729Z,49.96
2023-03-26T05:09:58.222Z,49.96
2023-03-26T05:12:57.731Z,50
2023-03-26T05:15:59.358Z,50.01
2023-03-26T05:18:58.287Z,50.03
2023-03-26T05:21:59.041Z,50.01
2023-03-26T05:24:59.623Z,50.01
2023-03-26T05:27:58.618Z,50.03
2023-03-26T05:30:59.565Z,50.04
2023-03-26T05:33:58.636Z,50.03
2023-03-26T05:36:59.485Z,50.01
2023-03-26T05:39:58.273Z,50
2023-03-26T05:42:58.688Z,50.02
2023-03-26T05:45:59.697Z,50.02
2023-03-26T05:48:58.702Z,50.02
2023-03-26T05:52:00.024Z,50.03
2023-03-26T05:54:59.582Z,50.02
2023-03-26T05:57:58.058Z,50
2023-03-26T06:00:59.646Z,49.96
2023-03-26T06:03:57.970Z,49.97
2023-03-26T06:06:59.102Z,50
2023-03-26T06:09:59.338Z,49.97
2023-03-26T06:12:59.164Z,49.99
2023-03-26T06:15:58.462Z,49.99
2023-03-26T06:18:59.977Z,49.99
2023-03-26T06:22:00.509Z,49.98
2023-03-26T06:24:59.151Z,50.01
2023-03-26T06:27:57.208Z,50.01
2023-03-26T06:30:59.332Z,49.99
2023-03-26T06:33:58.286Z,49.98
2023-03-26T06:36:59.374Z,49.99
2023-03-26T06:39:58.944Z,49.99
2023-03-26T06:43:08.301Z,49.99
2023-03-26T06:45:58.840Z,49.98
2023-03-26T06:48:58.663Z,49.99
2023-03-26T06:51:59.164Z,50
2023-03-26T06:54:58.227Z,50
2023-03-26T06:57:59.293Z,50
2023-03-26T07:00:59.723Z,50.02
2023-03-26T07:04:00.367Z,49.99
2023-03-26T07:06:59.413Z,49.98
2023-03-26T07:10:00.169Z,50.01
2023-03-26T07:12:58.818Z,50
2023-03-26T07:15:58.612Z,50.01
2023-03-26T07:18:57.810Z,50.02
2023-03-26T07:21:58.900Z,50
2023-03-26T07:24:58.489Z,50.02
2023-03-26T07:27:58.261Z,50.04
2023-03-26T07:30:59.262Z,50.04
2023-03-26T07:34:00.562Z,50.01
2023-03-26T07:36:58.825Z,50.01
2023-03-26T07:39:59.004Z,50.03
2023-03-26T07:42:59.449Z,50.05
2023-03-26T07:46:00.527Z,50.03
2023-03-26T07:48:59.779Z,50.03
2023-03-26T07:51:59.045Z,50.01
2023-03-26T07:54:59.590Z,50.01
2023-03-26T07:57:58.358Z,50
2023-03-26T08:00:59.971Z,49.95
2023-03-26T08:03:58.616Z,49.94
2023-03-26T08:06:58.343Z,49.97
2023-03-26T08:09:59.048Z,50
2023-03-26T08:13:00.474Z,50
2023-03-26T08:15:59.092Z,50
2023-03-26T08:18:58.160Z,50
2023-03-26T08:21:58.812Z,49.98
2023-03-26T08:24:58.365Z,49.99
2023-03-26T08:27:59.407Z,49.98
2023-03-26T08:30:59.320Z,49.97
2023-03-26T08:33:58.276Z,50
2023-03-26T08:36:58.919Z,50.01
2023-03-26T08:39:59.252Z,50.04
2023-03-26T08:42:59.802Z,50.02
2023-03-26T08:45:59.070Z,50.02
2023-03-26T08:49:00.109Z,50.02
2023-03-26T08:51:58.663Z,50.03
2023-03-26T08:54:58.819Z,50.02
2023-03-26T08:57:57.927Z,49.97
2023-03-26T09:00:59.196Z,49.96
2023-03-26T09:04:00.493Z,49.97
2023-03-26T09:06:59.300Z,49.95
2023-03-26T09:09:59.629Z,50
2023-03-26T09:12:59.831Z,50.02
2023-03-26T09:15:59.610Z,50.01
2023-03-26T09:18:59.141Z,50
2023-03-26T09:21:58.181Z,50.02
2023-03-26T09:24:59.246Z,50.03
2023-03-26T09:27:58.432Z,50
2023-03-26T09:30:59.406Z,50.02
2023-03-26T09:33:59.813Z,50.02
2023-03-26T09:36:58.809Z,50.01
2023-03-26T09:39:59.420Z,50.02
2023-03-26T09:42:57.808Z,50.02
2023-03-26T09:45:58.553Z,50.01
2023-03-26T09:48:58.632Z,50
2023-03-26T09:51:59.822Z,50
2023-03-26T09:54:58.915Z,50.01
2023-03-26T09:57:59.191Z,50
2023-03-26T10:00:58.747Z,49.99
2023-03-26T10:03:58.975Z,50.01
2023-03-26T10:06:58.626Z,50.01
2023-03-26T10:09:57.347Z,50
2023-03-26T10:13:11.665Z,50
2023-03-26T10:15:58.549Z,49.97
2023-03-26T10:18:59.000Z,50
2023-03-26T10:21:58.563Z,50
2023-03-26T10:24:58.626Z,50.01
2023-03-26T10:28:02.043Z,50.02
2023-03-26T10:30:59.189Z,50
2023-03-26T10:33:59.289Z,50.01
2023-03-26T10:36:58.656Z,49.99
2023-03-26T10:39:58.682Z,49.99
2023-03-26T10:42:58.343Z,50.01
2023-03-26T10:45:59.602Z,50.01
2023-03-26T10:48:58.296Z,50.01
2023-03-26T10:51:58.495Z,50.02
2023-03-26T10:54:59.286Z,50.02
2023-03-26T10:57:58.812Z,50.05
2023-03-26T11:00:59.541Z,50.02
2023-03-26T11:04:17.885Z,50.03
2023-03-26T11:06:58.984Z,50.02
2023-03-26T11:10:00.102Z,49.97
2023-03-26T11:12:58.233Z,50
2023-03-26T11:15:58.714Z,50.01
2023-03-26T11:18:59.000Z,50.02
2023-03-26T11:21:58.592Z,50.02
2023-03-26T11:24:59.216Z,50.02
2023-03-26T11:27:59.671Z,50.03
2023-03-26T11:30:57.949Z,49.98
2023-03-26T11:33:59.734Z,49.99
2023-03-26T11:37:00.286Z,49.99
2023-03-26T11:39:59.311Z,50.04
2023-03-26T11:42:58.379Z,50.05
2023-03-26T11:45:58.680Z,50.01
2023-03-26T11:48:58.222Z,50.03
2023-03-26T11:51:59.640Z,49.99
2023-03-26T11:54:59.305Z,50.06
2023-03-26T11:57:58.449Z,50.02
2023-03-26T12:00:59.378Z,50.01
2023-03-26T12:03:59.250Z,50.01
2023-03-26T12:06:58.153Z,49.99
2023-03-26T12:09:58.442Z,50.02
2023-03-26T12:12:59.468Z,50.03
2023-03-26T12:15:59.060Z,49.98
2023-03-26T12:18:58.276Z,50
2023-03-26T12:21:58.781Z,50.02
2023-03-26T12:24:59.330Z,50.02
2023-03-26T12:27:58.982Z,50.01
2023-03-26T12:30:59.904Z,50.03
2023-03-26T12:33:59.523Z,50.01
2023-03-26T12:36:58.477Z,50.01
2023-03-26T12:40:08.609Z,50
2023-03-26T12:44:46.499Z,50.01
2023-03-26T12:46:20.713Z,50.01
2023-03-26T12:48:57.520Z,50.03
2023-03-26T12:51:59.465Z,50.01
2023-03-26T12:54:59.053Z,50
2023-03-26T12:58:01.088Z,49.99
2023-03-26T13:01:00.264Z,50.02
2023-03-26T13:03:59.256Z,50.07
2023-03-26T13:07:01.563Z,50.04
2023-03-26T13:09:59.589Z,50.06
2023-03-26T13:12:58.781Z,50.05
2023-03-26T13:16:00.296Z,50
2023-03-26T13:18:57.591Z,49.99
2023-03-26T13:21:58.908Z,50.01
2023-03-26T13:24:59.982Z,50.01
2023-03-26T13:27:59.243Z,49.99
2023-03-26T13:30:59.138Z,49.97
2023-03-26T13:33:58.740Z,49.95
2023-03-26T13:37:00.939Z,49.96
2023-03-26T13:39:58.717Z,49.97
2023-03-26T13:42:58.210Z,49.97
2023-03-26T13:45:57.954Z,49.95
2023-03-26T13:48:58.793Z,49.96
2023-03-26T13:51:59.224Z,49.98
2023-03-26T13:54:58.156Z,49.97
2023-03-26T13:57:59.059Z,50
2023-03-26T14:00:59.516Z,50.02
2023-03-26T14:03:59.709Z,50.04
2023-03-26T14:06:59.435Z,50.04
2023-03-26T14:09:58.217Z,50.03
2023-03-26T14:12:58.809Z,50.02
2023-03-26T14:15:59.381Z,50
2023-03-26T14:18:57.982Z,50
2023-03-26T14:22:00.312Z,49.98
2023-03-26T14:24:58.712Z,49.99
2023-03-26T14:27:59.563Z,49.99
2023-03-26T14:31:00.039Z,50
2023-03-26T14:33:58.152Z,50
2023-03-26T14:36:58.271Z,49.96
2023-03-26T14:39:59.294Z,49.94
2023-03-26T14:42:58.992Z,49.95
2023-03-26T14:45:58.255Z,49.95
2023-03-26T14:48:58.678Z,49.96
2023-03-26T14:51:59.162Z,49.96
2023-03-26T14:54:58.757Z,49.96
2023-03-26T14:57:58.812Z,49.97
2023-03-26T15:01:03.895Z,50.05
2023-03-26T15:03:58.484Z,50.03
2023-03-26T15:06:58.977Z,50.01
2023-03-26T15:09:59.413Z,50.02
2023-03-26T15:12:57.401Z,49.99
2023-03-26T15:15:58.631Z,50.01
2023-03-26T15:18:58.723Z,49.98
2023-03-26T15:21:59.100Z,49.94
2023-03-26T15:24:59.093Z,49.97
2023-03-26T15:27:58.181Z,49.94
2023-03-26T15:30:59.214Z,49.98
2023-03-26T15:33:59.493Z,49.96
2023-03-26T15:36:59.317Z,49.97
2023-03-26T15:40:00.559Z,49.97
2023-03-26T15:42:58.556Z,49.97
2023-03-26T15:45:59.768Z,49.99
2023-03-26T15:48:59.273Z,49.98
2023-03-26T15:51:59.902Z,49.96
2023-03-26T15:54:59.675Z,49.96
2023-03-26T15:57:58.934Z,49.99
2023-03-26T16:01:00.369Z,50.05
2023-03-26T16:03:58.438Z,50.04
2023-03-26T16:06:57.939Z,50.04
2023-03-26T16:10:03.210Z,50.01
2023-03-26T16:12:58.657Z,49.98
2023-03-26T16:15:59.575Z,50.01
2023-03-26T16:18:59.309Z,49.96
2023-03-26T16:21:59.137Z,49.95
2023-03-26T16:24:58.653Z,49.97
2023-03-26T16:27:59.509Z,49.95
2023-03-26T16:30:58.531Z,50
2023-03-26T16:33:59.328Z,49.97
2023-03-26T16:36:59.804Z,49.96
2023-03-26T16:39:59.554Z,49.93
2023-03-26T16:42:58.121Z,49.93
2023-03-26T16:45:59.026Z,49.97
2023-03-26T16:48:57.657Z,49.96
2023-03-26T16:51:58.680Z,49.97
2023-03-26T16:54:58.574Z,49.98
2023-03-26T16:57:59.678Z,49.96
2023-03-26T17:01:00.021Z,50.04
2023-03-26T17:03:58.770Z,50.05
2023-03-26T17:06:58.298Z,50.05
2023-03-26T17:09:59.062Z,50
2023-03-26T17:12:59.574Z,49.98
2023-03-26T17:15:58.714Z,49.99
2023-03-26T17:18:59.338Z,49.97
2023-03-26T17:21:58.975Z,49.96
2023-03-26T17:24:59.809Z,49.97
2023-03-26T17:27:58.451Z,49.96
2023-03-26T17:30:58.353Z,49.96
2023-03-26T17:33:58.911Z,49.98
2023-03-26T17:36:59.425Z,49.98
2023-03-26T17:39:58.074Z,49.98
2023-03-26T17:42:58.845Z,49.98
2023-03-26T17:46:02.827Z,49.98
2023-03-26T17:48:59.075Z,49.98
2023-03-26T17:51:58.475Z,49.98
2023-03-26T17:54:57.873Z,49.98
2023-03-26T17:57:58.447Z,49.98
2023-03-26T18:00:58.554Z,49.98
2023-03-26T18:03:59.175Z,49.98
2023-03-26T18:06:57.586Z,49.98
2023-03-26T18:09:59.503Z,49.98
2023-03-26T18:12:58.734Z,49.98
2023-03-26T18:15:59.896Z,49.98
2023-03-26T18:18:59.285Z,49.98
2023-03-26T18:21:59.287Z,49.98
2023-03-26T18:24:59.850Z,49.98
2023-03-26T18:27:58.037Z,49.98
2023-03-26T18:30:58.879Z,49.98
2023-03-26T18:33:59.942Z,49.98
2023-03-26T18:36:59.197Z,49.98
2023-03-26T18:39:59.551Z,49.98
2023-03-26T18:42:58.560Z,49.98
2023-03-26T18:45:58.991Z,49.98
2023-03-26T18:48:59.507Z,49.98
2023-03-26T18:51:58.005Z,49.98
2023-03-26T18:54:58.967Z,49.98
2023-03-26T18:57:58.463Z,49.98
2023-03-26T19:01:27.408Z,49.98
2023-03-26T19:03:58.207Z,49.98
2023-03-26T19:06:59.097Z,49.98
2023-03-26T19:09:59.395Z,49.98
2023-03-26T19:12:58.129Z,49.98
2023-03-26T19:15:59.141Z,49.98
2023-03-26T19:18:58.695Z,49.98
2023-03-26T19:21:59.661Z,49.98
2023-03-26T19:24:59.387Z,49.98
2023-03-26T19:27:58.454Z,49.98
2023-03-26T19:30:59.409Z,49.98
2023-03-26T19:33:59.318Z,49.98
2023-03-26T19:36:59.847Z,49.98
2023-03-26T19:39:58.654Z,49.98
2023-03-26T19:42:58.438Z,49.98
2023-03-26T19:46:01.329Z,49.98
2023-03-26T19:48:58.245Z,49.98
2023-03-26T19:51:58.997Z,49.98
2023-03-26T19:54:59.173Z,49.98
2023-03-26T19:57:59.553Z,49.98
2023-03-26T20:00:59.808Z,49.98
2023-03-26T20:03:59.089Z,49.98
2023-03-26T20:06:58.353Z,49.98
2023-03-26T20:09:57.935Z,49.98
2023-03-26T20:12:58.807Z,49.98
2023-03-26T20:16:05.852Z,49.98
2023-03-26T20:18:58.852Z,49.98
2023-03-26T20:21:59.350Z,49.98
2023-03-26T20:24:58.453Z,49.98
2023-03-26T20:27:58.931Z,49.98
2023-03-26T20:30:59.745Z,49.98
2023-03-26T20:33:58.089Z,49.98
2023-03-26T20:37:01.238Z,49.98
2023-03-26T20:39:59.435Z,49.98
2023-03-26T20:42:59.876Z,49.98
2023-03-26T20:45:59.823Z,49.98
2023-03-26T20:48:59.198Z,49.98
2023-03-26T20:51:59.213Z,49.98
2023-03-26T20:54:59.912Z,49.98
2023-03-26T20:57:58.112Z,49.98
2023-03-26T21:00:58.749Z,49.98
2023-03-26T21:03:58.313Z,49.98
2023-03-26T21:09:58.683Z,49.98
2023-03-26T21:12:58.908Z,49.98
2023-03-26T21:16:01.016Z,49.98
2023-03-26T21:18:57.976Z,49.98
2023-03-26T21:21:59.153Z,49.98
2023-03-26T21:24:58.479Z,49.98
2023-03-26T21:27:59.215Z,49.98
2023-03-26T21:30:59.655Z,49.98
2023-03-26T21:33:58.846Z,49.98
2023-03-26T21:36:58.096Z,49.98
2023-03-26T21:39:59.357Z,49.98
2023-03-26T21:42:58.959Z,49.98
2023-03-26T21:45:58.200Z,49.98
2023-03-26T21:48:58.534Z,49.98
2023-03-26T21:51:58.900Z,49.98
2023-03-26T21:54:57.904Z,49.98
2023-03-26T21:57:58.416Z,49.98
2023-03-26T22:00:59.401Z,49.98
2023-03-26T22:03:59.793Z,49.98
2023-03-26T22:06:58.045Z,49.98
2023-03-26T22:09:58.632Z,49.98
2023-03-26T22:12:58.654Z,49.98
2023-03-26T22:15:59.053Z,49.98
2023-03-26T22:18:58.374Z,49.98
2023-03-26T22:21:58.985Z,49.98
2023-03-26T22:24:57.976Z,49.98
2023-03-26T22:27:59.292Z,49.98
2023-03-26T22:30:59.440Z,49.98
2023-03-26T22:33:59.200Z,49.98
2023-03-26T22:36:59.359Z,49.98
2023-03-26T22:39:58.703Z,49.98
2023-03-26T22:42:59.129Z,49.98
2023-03-26T22:45:59.272Z,49.98
2023-03-26T22:48:59.453Z,49.98
2023-03-26T22:51:58.532Z,49.98
2023-03-26T22:54:59.265Z,49.98
2023-03-26T22:57:59.704Z,49.98
2023-03-26T23:01:00.207Z,49.98
2023-03-26T23:03:59.169Z,49.98
2023-03-26T23:06:59.445Z,49.98
2023-03-26T23:09:58.582Z,49.98
2023-03-26T23:12:59.187Z,49.98
2023-03-26T23:15:58.980Z,49.98
2023-03-26T23:18:58.035Z,49.98
2023-03-26T23:21:58.504Z,49.98
2023-03-26T23:24:59.228Z,49.98
2023-03-26T23:27:58.008Z,49.98
2023-03-26T23:30:58.890Z,49.98
2023-03-26T23:33:59.690Z,49.98
2023-03-26T23:36:59.344Z,49.98
2023-03-26T23:39:58.828Z,49.98
2023-03-26T23:42:58.932Z,49.98
2023-03-26T23:45:57.620Z,49.98
2023-03-26T23:48:58.225Z,49.98
2023-03-26T23:51:59.296Z,49.98
2023-03-26T23:54:59.162Z,49.98
2023-03-26T23:57:59.304Z,49.98
